sensor_id;sensor_type;location;lat;lon;timestamp;temperature;humidity
13164;DHT22;6647;53.688;10.746;2022-08-05T00:00:13;19.90;1.00
13164;DHT22;6647;53.688;10.746;2022-08-05T00:01:34;19.90;1.00
13164;DHT22;6647;53.688;10.746;2022-08-05T00:02:55;19.80;1.00
13164;DHT22;6647;53.688;10.746;2022-08-05T00:04:16;19.80;1.00
13164;DHT22;6647;53.688;10.746;2022-08-05T00:05:37;19.80;1.00
13164;DHT22;6647;53.688;10.746;2022-08-05T00:06:58;19.80;1.00
13164;DHT22;6647;53.688;10.746;2022-08-05T00:08:19;19.70;1.00
13164;DHT22;6647;53.688;10.746;2022-08-05T00:09:40;19.70;1.00
13164;DHT22;6647;53.688;10.746;2022-08-05T00:11:04;19.70;1.00
13164;DHT22;6647;53.688;10.746;2022-08-05T00:12:25;19.70;1.00
13164;DHT22;6647;53.688;10.746;2022-08-05T00:13:46;19.70;1.00
13164;DHT22;6647;53.688;10.746;2022-08-05T00:15:07;19.70;1.00
13164;DHT22;6647;53.688;10.746;2022-08-05T00:16:28;19.60;1.00
13164;DHT22;6647;53.688;10.746;2022-08-05T00:17:49;19.60;1.00
13164;DHT22;6647;53.688;10.746;2022-08-05T00:19:10;19.60;1.00
13164;DHT22;6647;53.688;10.746;2022-08-05T00:20:30;19.60;1.00
13164;DHT22;6647;53.688;10.746;2022-08-05T00:21:51;19.60;1.00
13164;DHT22;6647;53.688;10.746;2022-08-05T00:23:12;19.60;1.00
13164;DHT22;6647;53.688;10.746;2022-08-05T00:24:33;19.60;1.00
13164;DHT22;6647;53.688;10.746;2022-08-05T00:25:54;19.50;1.00
13164;DHT22;6647;53.688;10.746;2022-08-05T00:27:15;19.50;1.00
13164;DHT22;6647;53.688;10.746;2022-08-05T00:28:36;19.50;1.00
13164;DHT22;6647;53.688;10.746;2022-08-05T00:29:57;19.60;1.00
13164;DHT22;6647;53.688;10.746;2022-08-05T00:31:18;19.60;1.00
13164;DHT22;6647;53.688;10.746;2022-08-05T00:32:39;19.50;1.00
13164;DHT22;6647;53.688;10.746;2022-08-05T00:34:00;19.60;1.00
13164;DHT22;6647;53.688;10.746;2022-08-05T00:35:21;19.50;1.00
13164;DHT22;6647;53.688;10.746;2022-08-05T00:36:42;19.50;1.00
13164;DHT22;6647;53.688;10.746;2022-08-05T00:38:03;19.50;1.00
13164;DHT22;6647;53.688;10.746;2022-08-05T00:39:24;19.50;1.00
13164;DHT22;6647;53.688;10.746;2022-08-05T00:40:52;19.50;1.00
13164;DHT22;6647;53.688;10.746;2022-08-05T00:42:13;19.50;1.00
13164;DHT22;6647;53.688;10.746;2022-08-05T00:43:36;19.50;1.00
13164;DHT22;6647;53.688;10.746;2022-08-05T00:44:57;19.50;1.00
13164;DHT22;6647;53.688;10.746;2022-08-05T00:46:18;19.50;1.00
13164;DHT22;6647;53.688;10.746;2022-08-05T00:47:39;19.50;1.00
13164;DHT22;6647;53.688;10.746;2022-08-05T00:49:00;19.50;1.00
13164;DHT22;6647;53.688;10.746;2022-08-05T00:50:21;19.40;1.00
13164;DHT22;6647;53.688;10.746;2022-08-05T00:51:42;19.40;1.00
13164;DHT22;6647;53.688;10.746;2022-08-05T00:53:02;19.40;1.00
13164;DHT22;6647;53.688;10.746;2022-08-05T00:54:23;19.40;1.00
13164;DHT22;6647;53.688;10.746;2022-08-05T00:55:44;19.40;1.00
13164;DHT22;6647;53.688;10.746;2022-08-05T00:57:05;19.30;1.00
13164;DHT22;6647;53.688;10.746;2022-08-05T00:58:26;19.30;1.00
13164;DHT22;6647;53.688;10.746;2022-08-05T00:59:47;19.30;1.00
13164;DHT22;6647;53.688;10.746;2022-08-05T01:01:09;19.40;1.00
13164;DHT22;6647;53.688;10.746;2022-08-05T01:02:31;19.40;1.00
13164;DHT22;6647;53.688;10.746;2022-08-05T01:03:51;19.30;1.00
13164;DHT22;6647;53.688;10.746;2022-08-05T01:05:12;19.40;1.00
13164;DHT22;6647;53.688;10.746;2022-08-05T01:06:33;19.40;1.00
13164;DHT22;6647;53.688;10.746;2022-08-05T01:07:55;19.40;1.00
13164;DHT22;6647;53.688;10.746;2022-08-05T01:09:16;19.40;1.00
13164;DHT22;6647;53.688;10.746;2022-08-05T01:10:43;19.40;1.00
13164;DHT22;6647;53.688;10.746;2022-08-05T01:12:09;19.40;1.00
13164;DHT22;6647;53.688;10.746;2022-08-05T01:13:38;19.40;1.00
13164;DHT22;6647;53.688;10.746;2022-08-05T01:15:04;19.40;1.00
13164;DHT22;6647;53.688;10.746;2022-08-05T01:18:23;19.40;1.00
13164;DHT22;6647;53.688;10.746;2022-08-05T01:19:49;19.30;1.00
13164;DHT22;6647;53.688;10.746;2022-08-05T01:21:44;19.30;1.00
13164;DHT22;6647;53.688;10.746;2022-08-05T01:23:34;19.30;1.00
13164;DHT22;6647;53.688;10.746;2022-08-05T01:25:17;19.30;1.00
13164;DHT22;6647;53.688;10.746;2022-08-05T01:28:36;19.30;1.00
13164;DHT22;6647;53.688;10.746;2022-08-05T01:30:01;19.30;1.00
13164;DHT22;6647;53.688;10.746;2022-08-05T01:31:35;19.30;1.00
13164;DHT22;6647;53.688;10.746;2022-08-05T01:32:58;19.30;1.00
13164;DHT22;6647;53.688;10.746;2022-08-05T01:34:23;19.30;1.00
13164;DHT22;6647;53.688;10.746;2022-08-05T01:35:46;19.30;1.00
13164;DHT22;6647;53.688;10.746;2022-08-05T01:37:15;19.30;1.00
13164;DHT22;6647;53.688;10.746;2022-08-05T01:38:37;19.30;1.00
13164;DHT22;6647;53.688;10.746;2022-08-05T01:39:59;19.30;1.00
13164;DHT22;6647;53.688;10.746;2022-08-05T01:41:22;19.30;1.00
13164;DHT22;6647;53.688;10.746;2022-08-05T01:42:45;19.20;1.00
13164;DHT22;6647;53.688;10.746;2022-08-05T01:44:07;19.30;1.00
13164;DHT22;6647;53.688;10.746;2022-08-05T01:45:29;19.30;1.00
13164;DHT22;6647;53.688;10.746;2022-08-05T01:46:52;19.30;1.00
13164;DHT22;6647;53.688;10.746;2022-08-05T01:48:15;19.30;1.00
13164;DHT22;6647;53.688;10.746;2022-08-05T01:49:38;19.30;1.00
13164;DHT22;6647;53.688;10.746;2022-08-05T01:51:00;19.20;1.00
13164;DHT22;6647;53.688;10.746;2022-08-05T01:52:23;19.30;1.00
13164;DHT22;6647;53.688;10.746;2022-08-05T01:53:47;19.30;1.00
13164;DHT22;6647;53.688;10.746;2022-08-05T01:55:11;19.30;1.00
13164;DHT22;6647;53.688;10.746;2022-08-05T01:56:38;19.30;1.00
13164;DHT22;6647;53.688;10.746;2022-08-05T01:58:03;19.30;1.00
13164;DHT22;6647;53.688;10.746;2022-08-05T01:59:25;19.20;1.00
13164;DHT22;6647;53.688;10.746;2022-08-05T02:00:51;19.20;1.00
13164;DHT22;6647;53.688;10.746;2022-08-05T02:02:14;19.20;1.00
13164;DHT22;6647;53.688;10.746;2022-08-05T02:03:42;19.20;1.00
13164;DHT22;6647;53.688;10.746;2022-08-05T02:05:06;19.20;1.00
13164;DHT22;6647;53.688;10.746;2022-08-05T02:06:28;19.20;1.00
13164;DHT22;6647;53.688;10.746;2022-08-05T02:07:49;19.20;1.00
13164;DHT22;6647;53.688;10.746;2022-08-05T02:09:11;19.20;1.00
13164;DHT22;6647;53.688;10.746;2022-08-05T02:10:38;19.20;1.00
13164;DHT22;6647;53.688;10.746;2022-08-05T02:12:11;19.20;1.00
13164;DHT22;6647;53.688;10.746;2022-08-05T02:13:54;19.20;1.00
13164;DHT22;6647;53.688;10.746;2022-08-05T02:15:25;19.10;1.00
13164;DHT22;6647;53.688;10.746;2022-08-05T02:16:50;19.10;1.00
13164;DHT22;6647;53.688;10.746;2022-08-05T02:18:22;19.10;1.00
13164;DHT22;6647;53.688;10.746;2022-08-05T02:19:48;19.10;1.00
13164;DHT22;6647;53.688;10.746;2022-08-05T02:21:20;19.10;1.00
13164;DHT22;6647;53.688;10.746;2022-08-05T02:22:44;19.10;1.00
13164;DHT22;6647;53.688;10.746;2022-08-05T02:24:08;19.20;1.00
13164;DHT22;6647;53.688;10.746;2022-08-05T02:25:33;19.20;1.00
13164;DHT22;6647;53.688;10.746;2022-08-05T02:26:59;19.10;1.00
13164;DHT22;6647;53.688;10.746;2022-08-05T02:28:24;19.10;1.00
13164;DHT22;6647;53.688;10.746;2022-08-05T02:29:47;19.10;1.00
13164;DHT22;6647;53.688;10.746;2022-08-05T02:31:13;19.10;1.00
13164;DHT22;6647;53.688;10.746;2022-08-05T02:32:37;19.20;1.00
13164;DHT22;6647;53.688;10.746;2022-08-05T02:34:04;19.20;1.00
13164;DHT22;6647;53.688;10.746;2022-08-05T02:35:27;19.20;1.00
13164;DHT22;6647;53.688;10.746;2022-08-05T02:36:51;19.20;1.00
13164;DHT22;6647;53.688;10.746;2022-08-05T02:38:13;19.20;1.00
13164;DHT22;6647;53.688;10.746;2022-08-05T02:39:36;19.20;1.00
13164;DHT22;6647;53.688;10.746;2022-08-05T02:40:58;19.20;1.00
13164;DHT22;6647;53.688;10.746;2022-08-05T02:42:20;19.20;1.00
13164;DHT22;6647;53.688;10.746;2022-08-05T02:43:42;19.20;1.00
13164;DHT22;6647;53.688;10.746;2022-08-05T02:45:04;19.20;1.00
13164;DHT22;6647;53.688;10.746;2022-08-05T02:46:27;19.20;1.00
13164;DHT22;6647;53.688;10.746;2022-08-05T02:47:50;19.20;1.00
13164;DHT22;6647;53.688;10.746;2022-08-05T02:49:16;19.20;1.00
13164;DHT22;6647;53.688;10.746;2022-08-05T02:50:37;19.30;1.00
13164;DHT22;6647;53.688;10.746;2022-08-05T02:52:01;19.30;1.00
13164;DHT22;6647;53.688;10.746;2022-08-05T02:53:22;19.30;1.00
13164;DHT22;6647;53.688;10.746;2022-08-05T02:54:44;19.30;1.00
13164;DHT22;6647;53.688;10.746;2022-08-05T02:56:07;19.30;1.00
13164;DHT22;6647;53.688;10.746;2022-08-05T02:57:29;19.30;1.00
13164;DHT22;6647;53.688;10.746;2022-08-05T02:58:51;19.30;1.00
13164;DHT22;6647;53.688;10.746;2022-08-05T03:00:13;19.30;1.00
13164;DHT22;6647;53.688;10.746;2022-08-05T03:01:36;19.30;1.00
13164;DHT22;6647;53.688;10.746;2022-08-05T03:03:00;19.30;1.00
13164;DHT22;6647;53.688;10.746;2022-08-05T03:04:22;19.30;1.00
13164;DHT22;6647;53.688;10.746;2022-08-05T03:05:45;19.40;1.00
13164;DHT22;6647;53.688;10.746;2022-08-05T03:07:06;19.40;1.00
13164;DHT22;6647;53.688;10.746;2022-08-05T03:08:28;19.40;1.00
13164;DHT22;6647;53.688;10.746;2022-08-05T03:09:49;19.40;1.00
13164;DHT22;6647;53.688;10.746;2022-08-05T03:11:21;19.40;1.00
13164;DHT22;6647;53.688;10.746;2022-08-05T03:12:42;19.40;1.00
13164;DHT22;6647;53.688;10.746;2022-08-05T03:14:03;19.40;1.00
13164;DHT22;6647;53.688;10.746;2022-08-05T03:15:24;19.40;1.00
13164;DHT22;6647;53.688;10.746;2022-08-05T03:16:45;19.40;1.00
13164;DHT22;6647;53.688;10.746;2022-08-05T03:18:05;19.30;1.00
13164;DHT22;6647;53.688;10.746;2022-08-05T03:19:26;19.10;1.00
13164;DHT22;6647;53.688;10.746;2022-08-05T03:20:47;19.10;1.00
13164;DHT22;6647;53.688;10.746;2022-08-05T03:22:08;19.00;1.00
13164;DHT22;6647;53.688;10.746;2022-08-05T03:23:29;18.90;1.00
13164;DHT22;6647;53.688;10.746;2022-08-05T03:24:51;18.90;1.00
13164;DHT22;6647;53.688;10.746;2022-08-05T03:26:12;18.90;1.00
13164;DHT22;6647;53.688;10.746;2022-08-05T03:27:33;18.90;1.00
13164;DHT22;6647;53.688;10.746;2022-08-05T03:28:54;18.90;1.00
13164;DHT22;6647;53.688;10.746;2022-08-05T03:30:15;18.90;1.00
13164;DHT22;6647;53.688;10.746;2022-08-05T03:31:36;18.90;1.00
13164;DHT22;6647;53.688;10.746;2022-08-05T03:33:02;18.90;1.00
13164;DHT22;6647;53.688;10.746;2022-08-05T03:34:24;18.90;1.00
13164;DHT22;6647;53.688;10.746;2022-08-05T03:35:46;18.90;1.00
13164;DHT22;6647;53.688;10.746;2022-08-05T03:37:08;18.90;1.00
13164;DHT22;6647;53.688;10.746;2022-08-05T03:38:29;18.90;1.00
13164;DHT22;6647;53.688;10.746;2022-08-05T03:39:58;18.90;1.00
13164;DHT22;6647;53.688;10.746;2022-08-05T03:41:19;18.90;1.00
13164;DHT22;6647;53.688;10.746;2022-08-05T03:42:40;18.90;1.00
13164;DHT22;6647;53.688;10.746;2022-08-05T03:44:01;18.90;1.00
13164;DHT22;6647;53.688;10.746;2022-08-05T03:45:22;18.90;1.00
13164;DHT22;6647;53.688;10.746;2022-08-05T03:46:43;18.90;1.00
13164;DHT22;6647;53.688;10.746;2022-08-05T03:48:04;18.90;1.00
13164;DHT22;6647;53.688;10.746;2022-08-05T03:49:25;18.90;1.00
13164;DHT22;6647;53.688;10.746;2022-08-05T03:50:54;18.90;1.00
13164;DHT22;6647;53.688;10.746;2022-08-05T03:52:31;18.90;1.00
13164;DHT22;6647;53.688;10.746;2022-08-05T03:53:58;18.80;1.00
13164;DHT22;6647;53.688;10.746;2022-08-05T03:55:26;18.90;1.00
13164;DHT22;6647;53.688;10.746;2022-08-05T03:56:49;18.90;1.00
13164;DHT22;6647;53.688;10.746;2022-08-05T03:58:11;18.90;1.00
13164;DHT22;6647;53.688;10.746;2022-08-05T03:59:40;18.90;1.00
13164;DHT22;6647;53.688;10.746;2022-08-05T04:01:03;18.90;1.00
13164;DHT22;6647;53.688;10.746;2022-08-05T04:02:29;18.90;1.00
13164;DHT22;6647;53.688;10.746;2022-08-05T04:03:51;18.90;1.00
13164;DHT22;6647;53.688;10.746;2022-08-05T04:05:14;19.00;1.00
13164;DHT22;6647;53.688;10.746;2022-08-05T04:06:37;19.00;1.00
13164;DHT22;6647;53.688;10.746;2022-08-05T04:08:01;19.00;1.00
13164;DHT22;6647;53.688;10.746;2022-08-05T04:09:23;19.00;1.00
13164;DHT22;6647;53.688;10.746;2022-08-05T04:10:44;19.00;1.00
13164;DHT22;6647;53.688;10.746;2022-08-05T04:12:07;19.00;1.00
13164;DHT22;6647;53.688;10.746;2022-08-05T04:13:29;19.00;1.00
13164;DHT22;6647;53.688;10.746;2022-08-05T04:14:50;19.00;1.00
13164;DHT22;6647;53.688;10.746;2022-08-05T04:16:12;19.00;1.00
13164;DHT22;6647;53.688;10.746;2022-08-05T04:17:34;19.00;1.00
13164;DHT22;6647;53.688;10.746;2022-08-05T04:18:55;19.00;1.00
13164;DHT22;6647;53.688;10.746;2022-08-05T04:20:20;19.00;1.00
13164;DHT22;6647;53.688;10.746;2022-08-05T04:21:41;19.00;1.00
13164;DHT22;6647;53.688;10.746;2022-08-05T04:23:02;19.00;1.00
13164;DHT22;6647;53.688;10.746;2022-08-05T04:24:23;19.00;1.00
13164;DHT22;6647;53.688;10.746;2022-08-05T04:25:43;19.00;1.00
13164;DHT22;6647;53.688;10.746;2022-08-05T04:27:04;19.00;1.00
13164;DHT22;6647;53.688;10.746;2022-08-05T04:28:25;19.10;1.00
13164;DHT22;6647;53.688;10.746;2022-08-05T04:29:46;19.10;1.00
13164;DHT22;6647;53.688;10.746;2022-08-05T04:31:07;19.10;1.00
13164;DHT22;6647;53.688;10.746;2022-08-05T04:32:28;19.00;1.00
13164;DHT22;6647;53.688;10.746;2022-08-05T04:33:49;19.00;1.00
13164;DHT22;6647;53.688;10.746;2022-08-05T04:35:10;19.00;1.00
13164;DHT22;6647;53.688;10.746;2022-08-05T04:36:31;18.90;1.00
13164;DHT22;6647;53.688;10.746;2022-08-05T04:37:52;18.90;1.00
13164;DHT22;6647;53.688;10.746;2022-08-05T04:39:12;18.90;1.00
13164;DHT22;6647;53.688;10.746;2022-08-05T04:40:38;18.90;1.00
13164;DHT22;6647;53.688;10.746;2022-08-05T04:41:59;18.80;1.00
13164;DHT22;6647;53.688;10.746;2022-08-05T04:43:20;18.80;1.00
13164;DHT22;6647;53.688;10.746;2022-08-05T04:44:41;18.80;1.00
13164;DHT22;6647;53.688;10.746;2022-08-05T04:46:03;18.80;1.00
13164;DHT22;6647;53.688;10.746;2022-08-05T04:47:24;18.70;1.00
13164;DHT22;6647;53.688;10.746;2022-08-05T04:48:45;18.70;1.00
13164;DHT22;6647;53.688;10.746;2022-08-05T04:50:07;18.60;1.00
13164;DHT22;6647;53.688;10.746;2022-08-05T04:51:28;18.50;1.00
13164;DHT22;6647;53.688;10.746;2022-08-05T04:52:49;18.40;1.00
13164;DHT22;6647;53.688;10.746;2022-08-05T04:54:09;18.30;1.00
13164;DHT22;6647;53.688;10.746;2022-08-05T04:55:30;18.30;1.00
13164;DHT22;6647;53.688;10.746;2022-08-05T04:56:52;18.30;1.00
13164;DHT22;6647;53.688;10.746;2022-08-05T04:58:16;18.20;1.00
13164;DHT22;6647;53.688;10.746;2022-08-05T04:59:37;18.20;1.00
13164;DHT22;6647;53.688;10.746;2022-08-05T05:00:58;18.20;1.00
13164;DHT22;6647;53.688;10.746;2022-08-05T05:02:19;18.10;1.00
13164;DHT22;6647;53.688;10.746;2022-08-05T05:03:40;18.10;1.00
13164;DHT22;6647;53.688;10.746;2022-08-05T05:05:00;18.10;1.00
13164;DHT22;6647;53.688;10.746;2022-08-05T05:06:21;18.00;1.00
13164;DHT22;6647;53.688;10.746;2022-08-05T05:07:42;18.00;1.00
13164;DHT22;6647;53.688;10.746;2022-08-05T05:09:03;18.00;1.00
13164;DHT22;6647;53.688;10.746;2022-08-05T05:10:24;18.00;1.00
13164;DHT22;6647;53.688;10.746;2022-08-05T05:11:45;18.00;1.00
13164;DHT22;6647;53.688;10.746;2022-08-05T05:13:06;18.00;1.00
13164;DHT22;6647;53.688;10.746;2022-08-05T05:14:27;18.00;1.00
13164;DHT22;6647;53.688;10.746;2022-08-05T05:15:48;17.90;1.00
13164;DHT22;6647;53.688;10.746;2022-08-05T05:17:09;17.90;1.00
13164;DHT22;6647;53.688;10.746;2022-08-05T05:18:30;17.90;1.00
13164;DHT22;6647;53.688;10.746;2022-08-05T05:19:53;17.90;1.00
13164;DHT22;6647;53.688;10.746;2022-08-05T05:21:15;17.80;1.00
13164;DHT22;6647;53.688;10.746;2022-08-05T05:22:36;17.80;1.00
13164;DHT22;6647;53.688;10.746;2022-08-05T05:23:57;17.80;1.00
13164;DHT22;6647;53.688;10.746;2022-08-05T05:25:18;17.80;1.00
13164;DHT22;6647;53.688;10.746;2022-08-05T05:26:38;17.80;1.00
13164;DHT22;6647;53.688;10.746;2022-08-05T05:27:59;17.80;1.00
13164;DHT22;6647;53.688;10.746;2022-08-05T05:29:20;17.80;1.00
13164;DHT22;6647;53.688;10.746;2022-08-05T05:30:41;17.80;1.00
13164;DHT22;6647;53.688;10.746;2022-08-05T05:32:02;17.80;1.00
13164;DHT22;6647;53.688;10.746;2022-08-05T05:33:23;17.70;1.00
13164;DHT22;6647;53.688;10.746;2022-08-05T05:34:44;17.80;1.00
13164;DHT22;6647;53.688;10.746;2022-08-05T05:36:05;17.80;1.00
13164;DHT22;6647;53.688;10.746;2022-08-05T05:37:26;17.80;1.00
13164;DHT22;6647;53.688;10.746;2022-08-05T05:38:47;17.70;1.00
13164;DHT22;6647;53.688;10.746;2022-08-05T05:40:08;17.70;1.00
13164;DHT22;6647;53.688;10.746;2022-08-05T05:41:29;17.70;1.00
13164;DHT22;6647;53.688;10.746;2022-08-05T05:42:51;17.70;1.00
13164;DHT22;6647;53.688;10.746;2022-08-05T05:44:12;17.60;1.00
13164;DHT22;6647;53.688;10.746;2022-08-05T05:45:33;17.60;1.00
13164;DHT22;6647;53.688;10.746;2022-08-05T05:46:54;17.70;1.00
13164;DHT22;6647;53.688;10.746;2022-08-05T05:48:14;17.60;1.00
13164;DHT22;6647;53.688;10.746;2022-08-05T05:49:35;17.60;1.00
13164;DHT22;6647;53.688;10.746;2022-08-05T05:50:56;17.60;1.00
13164;DHT22;6647;53.688;10.746;2022-08-05T05:52:17;17.60;1.00
13164;DHT22;6647;53.688;10.746;2022-08-05T05:53:38;17.60;1.00
13164;DHT22;6647;53.688;10.746;2022-08-05T05:55:00;17.50;1.00
13164;DHT22;6647;53.688;10.746;2022-08-05T05:56:21;17.50;1.00
13164;DHT22;6647;53.688;10.746;2022-08-05T05:57:44;17.50;1.00
13164;DHT22;6647;53.688;10.746;2022-08-05T05:59:06;17.50;1.00
13164;DHT22;6647;53.688;10.746;2022-08-05T06:00:27;17.50;1.00
13164;DHT22;6647;53.688;10.746;2022-08-05T06:01:48;17.50;1.00
13164;DHT22;6647;53.688;10.746;2022-08-05T06:03:08;17.50;1.00
13164;DHT22;6647;53.688;10.746;2022-08-05T06:04:29;17.50;1.00
13164;DHT22;6647;53.688;10.746;2022-08-05T06:05:50;17.50;1.00
13164;DHT22;6647;53.688;10.746;2022-08-05T06:07:11;17.50;1.00
13164;DHT22;6647;53.688;10.746;2022-08-05T06:08:32;17.50;1.00
13164;DHT22;6647;53.688;10.746;2022-08-05T06:09:53;17.50;1.00
13164;DHT22;6647;53.688;10.746;2022-08-05T06:11:14;17.50;1.00
13164;DHT22;6647;53.688;10.746;2022-08-05T06:12:36;17.60;1.00
13164;DHT22;6647;53.688;10.746;2022-08-05T06:13:57;17.60;1.00
13164;DHT22;6647;53.688;10.746;2022-08-05T06:15:18;17.60;1.00
13164;DHT22;6647;53.688;10.746;2022-08-05T06:16:39;17.60;1.00
13164;DHT22;6647;53.688;10.746;2022-08-05T06:18:00;17.60;1.00
13164;DHT22;6647;53.688;10.746;2022-08-05T06:19:21;17.60;1.00
13164;DHT22;6647;53.688;10.746;2022-08-05T06:20:42;17.60;1.00
13164;DHT22;6647;53.688;10.746;2022-08-05T06:22:04;17.60;1.00
13164;DHT22;6647;53.688;10.746;2022-08-05T06:23:25;17.70;1.00
13164;DHT22;6647;53.688;10.746;2022-08-05T06:24:45;17.70;1.00
13164;DHT22;6647;53.688;10.746;2022-08-05T06:26:06;17.70;1.00
13164;DHT22;6647;53.688;10.746;2022-08-05T06:27:27;17.70;1.00
13164;DHT22;6647;53.688;10.746;2022-08-05T06:28:48;17.70;1.00
13164;DHT22;6647;53.688;10.746;2022-08-05T06:30:10;17.60;1.00
13164;DHT22;6647;53.688;10.746;2022-08-05T06:31:36;17.60;1.00
13164;DHT22;6647;53.688;10.746;2022-08-05T06:32:57;17.70;1.00
13164;DHT22;6647;53.688;10.746;2022-08-05T06:34:18;17.70;1.00
13164;DHT22;6647;53.688;10.746;2022-08-05T06:35:39;17.70;1.00
13164;DHT22;6647;53.688;10.746;2022-08-05T06:37:00;17.70;1.00
13164;DHT22;6647;53.688;10.746;2022-08-05T06:38:21;17.70;1.00
13164;DHT22;6647;53.688;10.746;2022-08-05T06:39:42;17.70;1.00
13164;DHT22;6647;53.688;10.746;2022-08-05T06:41:04;17.70;1.00
13164;DHT22;6647;53.688;10.746;2022-08-05T06:42:25;17.70;1.00
13164;DHT22;6647;53.688;10.746;2022-08-05T06:43:47;17.70;1.00
13164;DHT22;6647;53.688;10.746;2022-08-05T06:45:08;17.80;1.00
13164;DHT22;6647;53.688;10.746;2022-08-05T06:46:29;17.80;1.00
13164;DHT22;6647;53.688;10.746;2022-08-05T06:47:50;17.80;1.00
13164;DHT22;6647;53.688;10.746;2022-08-05T06:49:10;17.80;1.00
13164;DHT22;6647;53.688;10.746;2022-08-05T06:50:31;17.80;1.00
13164;DHT22;6647;53.688;10.746;2022-08-05T06:51:52;17.80;1.00
13164;DHT22;6647;53.688;10.746;2022-08-05T06:53:13;17.80;1.00
13164;DHT22;6647;53.688;10.746;2022-08-05T06:54:34;17.80;1.00
13164;DHT22;6647;53.688;10.746;2022-08-05T06:55:58;17.80;1.00
13164;DHT22;6647;53.688;10.746;2022-08-05T06:57:20;17.80;1.00
13164;DHT22;6647;53.688;10.746;2022-08-05T06:58:41;17.90;1.00
13164;DHT22;6647;53.688;10.746;2022-08-05T07:00:02;17.90;1.00
13164;DHT22;6647;53.688;10.746;2022-08-05T07:01:24;17.90;1.00
13164;DHT22;6647;53.688;10.746;2022-08-05T07:02:45;17.90;1.00
13164;DHT22;6647;53.688;10.746;2022-08-05T07:04:06;17.90;1.00
13164;DHT22;6647;53.688;10.746;2022-08-05T07:05:27;17.90;1.00
13164;DHT22;6647;53.688;10.746;2022-08-05T07:06:48;17.90;1.00
13164;DHT22;6647;53.688;10.746;2022-08-05T07:08:09;17.90;1.00
13164;DHT22;6647;53.688;10.746;2022-08-05T07:09:30;17.90;1.00
13164;DHT22;6647;53.688;10.746;2022-08-05T07:10:51;17.90;1.00
13164;DHT22;6647;53.688;10.746;2022-08-05T07:12:12;17.90;1.00
13164;DHT22;6647;53.688;10.746;2022-08-05T07:13:53;17.90;1.00
13164;DHT22;6647;53.688;10.746;2022-08-05T07:15:32;17.90;1.00
13164;DHT22;6647;53.688;10.746;2022-08-05T07:17:12;17.90;1.00
13164;DHT22;6647;53.688;10.746;2022-08-05T07:18:32;17.90;1.00
13164;DHT22;6647;53.688;10.746;2022-08-05T07:19:53;17.90;1.00
13164;DHT22;6647;53.688;10.746;2022-08-05T07:21:16;17.90;1.00
13164;DHT22;6647;53.688;10.746;2022-08-05T07:22:37;17.80;1.00
13164;DHT22;6647;53.688;10.746;2022-08-05T07:23:58;17.80;1.00
13164;DHT22;6647;53.688;10.746;2022-08-05T07:25:19;17.90;1.00
13164;DHT22;6647;53.688;10.746;2022-08-05T07:26:41;17.90;1.00
13164;DHT22;6647;53.688;10.746;2022-08-05T07:28:02;17.90;1.00
13164;DHT22;6647;53.688;10.746;2022-08-05T07:29:23;17.90;1.00
13164;DHT22;6647;53.688;10.746;2022-08-05T07:30:44;17.80;1.00
13164;DHT22;6647;53.688;10.746;2022-08-05T07:32:05;17.80;1.00
13164;DHT22;6647;53.688;10.746;2022-08-05T07:33:26;17.90;1.00
13164;DHT22;6647;53.688;10.746;2022-08-05T07:34:47;17.90;1.00
13164;DHT22;6647;53.688;10.746;2022-08-05T07:36:08;17.90;1.00
13164;DHT22;6647;53.688;10.746;2022-08-05T07:37:29;17.90;1.00
13164;DHT22;6647;53.688;10.746;2022-08-05T07:38:50;18.00;1.00
13164;DHT22;6647;53.688;10.746;2022-08-05T07:40:11;18.00;1.00
13164;DHT22;6647;53.688;10.746;2022-08-05T07:41:32;17.90;1.00
13164;DHT22;6647;53.688;10.746;2022-08-05T07:42:53;18.00;1.00
13164;DHT22;6647;53.688;10.746;2022-08-05T07:44:14;18.00;1.00
13164;DHT22;6647;53.688;10.746;2022-08-05T07:45:35;18.00;1.00
13164;DHT22;6647;53.688;10.746;2022-08-05T07:46:56;18.00;1.00
13164;DHT22;6647;53.688;10.746;2022-08-05T07:48:17;18.00;1.00
13164;DHT22;6647;53.688;10.746;2022-08-05T07:49:38;18.00;1.00
13164;DHT22;6647;53.688;10.746;2022-08-05T07:50:59;18.00;1.00
13164;DHT22;6647;53.688;10.746;2022-08-05T07:52:20;18.00;1.00
13164;DHT22;6647;53.688;10.746;2022-08-05T07:53:42;18.10;1.00
13164;DHT22;6647;53.688;10.746;2022-08-05T07:55:03;18.10;1.00
13164;DHT22;6647;53.688;10.746;2022-08-05T07:56:24;18.10;1.00
13164;DHT22;6647;53.688;10.746;2022-08-05T07:57:45;18.10;1.00
13164;DHT22;6647;53.688;10.746;2022-08-05T07:59:05;18.10;1.00
13164;DHT22;6647;53.688;10.746;2022-08-05T08:00:26;18.10;1.00
13164;DHT22;6647;53.688;10.746;2022-08-05T08:01:47;18.10;1.00
13164;DHT22;6647;53.688;10.746;2022-08-05T08:03:12;18.10;1.00
13164;DHT22;6647;53.688;10.746;2022-08-05T08:04:33;18.20;1.00
13164;DHT22;6647;53.688;10.746;2022-08-05T08:05:54;18.20;1.00
13164;DHT22;6647;53.688;10.746;2022-08-05T08:07:19;18.20;1.00
13164;DHT22;6647;53.688;10.746;2022-08-05T08:08:40;18.20;1.00
13164;DHT22;6647;53.688;10.746;2022-08-05T08:10:01;18.30;1.00
13164;DHT22;6647;53.688;10.746;2022-08-05T08:11:22;18.30;1.00
13164;DHT22;6647;53.688;10.746;2022-08-05T08:12:43;18.30;1.00
13164;DHT22;6647;53.688;10.746;2022-08-05T08:14:04;18.30;1.00
13164;DHT22;6647;53.688;10.746;2022-08-05T08:15:25;18.30;1.00
13164;DHT22;6647;53.688;10.746;2022-08-05T08:16:45;18.30;1.00
13164;DHT22;6647;53.688;10.746;2022-08-05T08:18:06;18.40;1.00
13164;DHT22;6647;53.688;10.746;2022-08-05T08:19:27;18.40;1.00
13164;DHT22;6647;53.688;10.746;2022-08-05T08:20:48;18.40;1.00
13164;DHT22;6647;53.688;10.746;2022-08-05T08:22:11;18.40;1.00
13164;DHT22;6647;53.688;10.746;2022-08-05T08:23:31;18.50;1.00
13164;DHT22;6647;53.688;10.746;2022-08-05T08:24:53;18.40;1.00
13164;DHT22;6647;53.688;10.746;2022-08-05T08:26:14;18.50;1.00
13164;DHT22;6647;53.688;10.746;2022-08-05T08:27:35;18.50;1.00
13164;DHT22;6647;53.688;10.746;2022-08-05T08:28:59;18.50;1.00
13164;DHT22;6647;53.688;10.746;2022-08-05T08:30:21;18.50;1.00
13164;DHT22;6647;53.688;10.746;2022-08-05T08:31:41;18.50;1.00
13164;DHT22;6647;53.688;10.746;2022-08-05T08:33:10;18.50;1.00
13164;DHT22;6647;53.688;10.746;2022-08-05T08:34:31;18.50;1.00
13164;DHT22;6647;53.688;10.746;2022-08-05T08:35:52;18.60;1.00
13164;DHT22;6647;53.688;10.746;2022-08-05T08:37:12;18.50;1.00
13164;DHT22;6647;53.688;10.746;2022-08-05T08:38:33;18.60;1.00
13164;DHT22;6647;53.688;10.746;2022-08-05T08:39:54;18.60;1.00
13164;DHT22;6647;53.688;10.746;2022-08-05T08:41:15;18.60;1.00
13164;DHT22;6647;53.688;10.746;2022-08-05T08:42:37;18.60;1.00
13164;DHT22;6647;53.688;10.746;2022-08-05T08:43:58;18.60;1.00
13164;DHT22;6647;53.688;10.746;2022-08-05T08:45:21;18.60;1.00
13164;DHT22;6647;53.688;10.746;2022-08-05T08:46:43;18.60;1.00
13164;DHT22;6647;53.688;10.746;2022-08-05T08:48:05;18.60;1.00
13164;DHT22;6647;53.688;10.746;2022-08-05T08:49:26;18.60;1.00
13164;DHT22;6647;53.688;10.746;2022-08-05T08:50:49;18.60;1.00
13164;DHT22;6647;53.688;10.746;2022-08-05T08:52:15;18.60;1.00